Wabash, IN (46992)

2:02 PM EDT on March 30, 2017 (GMT -0400)
| | Change Station
Active Advisory: Flood Warning

Elev -9999 ft 0.00 °N, 0.00 °E | Updated 12 minutes ago

Overcast
Overcast
°F
Feels Like °F
N
Wind Variable Wind from North
Gusts mph

Today
High -- | Low -- °F
--% Chance of Precip.
Yesterday
High -- | Low -- °F
Precip. -- in
Pressure 29.68 in
Visibility 7.0 miles
Clouds Few 4800 ft
Scattered Clouds 5500 ft
Overcast 9000 ft
Dew Point Not available.
Humidity Not available.
Rainfall --
Snow Depth Not available.
7:29 AM 8:06 PM
Waxing Crescent, 10% visible
METAR KGUS 301758Z 09015KT 7SM -RA FEW048 SCT055 OVC090 09/09 A2966 RMK AO2A CIG 055 RWY23 SLP050 P0000 60029 T00910089 10092 20057 57028
Pressure 29.68 in
Visibility 7.0 miles
Clouds Few 4800 ft
Scattered Clouds 5500 ft
Overcast 9000 ft
Dew Point Not available.
Humidity Not available.
Rainfall --
Snow Depth Not available.
7:29 AM 8:06 PM
Waxing Crescent, 10% visible
METAR KGUS 301758Z 09015KT 7SM -RA FEW048 SCT055 OVC090 09/09 A2966 RMK AO2A CIG 055 RWY23 SLP050 P0000 60029 T00910089 10092 20057 57028

Get Your Daily Forecast Email!

Thanks for signing up!

Be on the lookout for a verification email in your inbox.

You'll start receiving severe weather alerts in your inbox..

×

10-Day Weather Forecast

Almanac

Astronomy

Mar. 30, 2017 Rise Set
Actual Time
Civil Twilight
Nautical Twilight
Astronomical Twilight
Moon
Length of Visible Light
Length of Day
Tomorrow will be .
, % of the Moon is Illuminated

Today's Extremes

State Highs State Lows

Community

WunderPhotos

Upload Photos

1,962,540 photos uploaded!

WunderBlog® & News

Nearby

Air Quality

  Air Quality AQ Index Pollutant
Not available.

Snow Depth

Station Depth Elevation

Earthquake Activity

City Distance Mag. Time & Date
Minimum magnitude displayed is 2.5.

Earthquake Activity

City Distance Mag. Time & Date
Minimum magnitude displayed is 2.5.

Coastal Water Temperatures

Place Temperature

Stations

Nearby Weather Stations

Station Location Temp. Windchill Dew Point Humidity Wind Precip. Elev Updated Type
                   

Watches & Warnings

Flood Warning
Issued: 11:36 AM EDT Mar. 30, 2017 – National Weather Service

The National Weather Service in northern Indiana has issued a

* Flood Warning for
the Eel River at North Manchester
* from Friday morning to Saturday evening.
* At 10 am Thursday the stage was 4.1 feet and steady.
* Minor flooding is forecast.
* Flood stage is 9.0 feet.
* Forecast... the river will rise above flood stage Friday morning
and crest near 9.4 feet around 2 PM Friday March 31 and fall below
flood stage around 8 PM Friday March 31.
* At 9.0 feet... the river is at flood stage... minor agricultural
flooding occurs.
* This crest compares to a previous crest of 9.1 feet which occurred
on Apr 12 2013.


Lat... Lon 4076 8635 4097 8592 4102 8577 4099 8577
      4087 8599 4072 8631